Collins, Iowa
Current Conditions -  °F | °C
As of 4:53 PM on Tuesday 25 Nov 2014 (Local Time) from KAMW Reporting Station
Clear Clear  
Wind Chill: 22°   Ceiling: Unl
Heat Index: 28°   Visibility: 10mi
Dew Point: 13°   Wind: 6mph
Humidity: 53%   Direction: 140°SE
Pressure: 30.05"   Gusts: NA
Location:  41.9°N, 93.31°W
Report Text: KAMW 252253Z AUTO 14005KT 10SM CLR M02/M11 A3005 RMK AO2 SLP187 T10221106
Loading
Personal Weather Stations






























Interactive Weather Map New forecast layout! Learn more

10-Day Weather Forecast

Advertisements
Track Severe Weather on mobile